createdAt,value
2023-05-15T00:01:51.885Z,13.32
2023-05-15T00:04:54.527Z,13.40
2023-05-15T00:07:57.409Z,14.35
2023-05-15T00:11:01.963Z,14.80
2023-05-15T00:14:04.969Z,13.55
2023-05-15T00:17:08.338Z,13.25
2023-05-15T00:20:11.584Z,12.93
2023-05-15T00:23:14.274Z,12.52
2023-05-15T00:26:16.966Z,12.70
2023-05-15T00:29:19.651Z,13.27
2023-05-15T00:32:22.326Z,13.18
2023-05-15T00:35:25.288Z,13.60
2023-05-15T00:38:28.114Z,14.75
2023-05-15T00:41:32.714Z,15.30
2023-05-15T00:44:36.007Z,15.32
2023-05-15T00:47:40.571Z,14.57
2023-05-15T00:50:44.048Z,14.10
2023-05-15T00:53:46.620Z,14.90
2023-05-15T00:56:49.467Z,14.10
2023-05-15T00:59:53.002Z,14.20
2023-05-15T01:02:55.668Z,14.35
2023-05-15T01:05:58.350Z,14.40
2023-05-15T01:09:04.475Z,13.30
2023-05-15T01:12:07.869Z,14.35
2023-05-15T01:15:11.150Z,14.07
2023-05-15T01:18:13.773Z,15.00
2023-05-15T01:21:28.401Z,13.20
2023-05-15T01:24:59.641Z,13.88
2023-05-15T01:28:06.395Z,14.75
2023-05-15T01:31:15.116Z,13.82
2023-05-15T01:34:19.795Z,14.32
2023-05-15T01:37:25.413Z,13.97
2023-05-15T01:40:28.829Z,14.00
2023-05-15T01:43:33.260Z,14.82
2023-05-15T01:46:39.777Z,13.40
2023-05-15T01:49:45.326Z,14.50
2023-05-15T01:52:54.118Z,12.53
2023-05-15T01:55:57.381Z,12.38
2023-05-15T01:59:00.741Z,13.10
2023-05-15T02:02:07.661Z,12.68
2023-05-15T02:05:11.320Z,12.68
2023-05-15T02:08:15.841Z,12.73
2023-05-15T02:11:19.156Z,13.77
2023-05-15T02:14:22.795Z,13.80
2023-05-15T02:17:25.668Z,13.80
2023-05-15T02:20:28.478Z,13.70
2023-05-15T02:23:31.098Z,13.80
2023-05-15T02:26:58.152Z,13.70
2023-05-15T02:30:26.762Z,14.23
2023-05-15T02:33:41.171Z,13.45
2023-05-15T02:36:47.159Z,14.55
2023-05-15T02:39:54.657Z,14.97
2023-05-15T02:42:57.919Z,15.18
2023-05-15T02:46:00.620Z,14.40
2023-05-15T02:49:04.040Z,14.02
2023-05-15T02:52:07.067Z,14.00
2023-05-15T02:55:10.461Z,15.23
2023-05-15T02:58:13.319Z,14.75
2023-05-15T03:01:16.432Z,13.80
2023-05-15T03:04:19.221Z,13.13
2023-05-15T03:07:21.793Z,13.35
2023-05-15T03:10:24.524Z,13.47
2023-05-15T03:13:27.300Z,14.18
2023-05-15T03:16:29.964Z,13.27
2023-05-15T03:19:32.853Z,14.38
2023-05-15T03:22:35.422Z,13.02
2023-05-15T03:25:38.059Z,12.17
2023-05-15T03:28:42.188Z,12.25
2023-05-15T03:31:44.992Z,12.18
2023-05-15T03:34:47.662Z,10.85
2023-05-15T03:37:50.222Z,11.20
2023-05-15T03:40:52.802Z,10.77
2023-05-15T03:43:55.391Z,10.43
2023-05-15T03:46:58.052Z,10.18
2023-05-15T03:50:00.790Z,9.98
2023-05-15T03:53:03.526Z,9.00
2023-05-15T03:56:06.539Z,8.13
2023-05-15T03:59:09.096Z,9.52
2023-05-15T04:02:11.739Z,10.07
2023-05-15T04:05:14.364Z,10.68
2023-05-15T04:08:17.185Z,11.32
2023-05-15T04:11:19.830Z,11.50
2023-05-15T04:14:22.526Z,13.07
2023-05-15T04:17:25.222Z,11.85
2023-05-15T04:20:27.914Z,10.68
2023-05-15T04:23:30.466Z,11.35
2023-05-15T04:26:33.558Z,11.33
2023-05-15T04:29:36.184Z,10.85
2023-05-15T04:32:39.687Z,9.38
2023-05-15T04:35:42.347Z,9.48
2023-05-15T04:38:44.939Z,9.25
2023-05-15T04:41:47.601Z,8.80
2023-05-15T04:44:50.247Z,8.90
2023-05-15T04:47:53.011Z,8.50
2023-05-15T04:50:55.632Z,7.00
2023-05-15T04:53:58.280Z,7.95
2023-05-15T04:57:01.420Z,7.10
2023-05-15T05:00:12.293Z,7.75
2023-05-15T05:03:15.210Z,7.25
2023-05-15T05:06:17.982Z,7.07
2023-05-15T05:09:20.757Z,6.15
2023-05-15T05:12:23.297Z,5.83
2023-05-15T05:15:26.116Z,5.03
2023-05-15T05:18:30.813Z,5.00
2023-05-15T05:21:34.214Z,5.30
2023-05-15T05:24:37.722Z,5.03
2023-05-15T05:27:40.464Z,4.73
2023-05-15T05:30:46.263Z,4.60
2023-05-15T05:33:52.988Z,4.75
2023-05-15T05:36:55.691Z,4.72
2023-05-15T05:40:01.342Z,4.72
2023-05-15T05:43:04.093Z,4.17
2023-05-15T05:46:06.633Z,3.88
2023-05-15T05:49:09.310Z,3.60
2023-05-15T05:52:12.661Z,4.00
2023-05-15T05:55:15.976Z,4.07
2023-05-15T05:58:25.437Z,3.40
2023-05-15T06:01:29.372Z,3.80
2023-05-15T06:04:34.132Z,3.70
2023-05-15T06:07:40.374Z,3.20
2023-05-15T06:10:43.625Z,3.63
2023-05-15T06:13:49.545Z,3.47
2023-05-15T06:16:56.004Z,4.47
2023-05-15T06:20:01.545Z,4.55
2023-05-15T06:23:09.270Z,4.68
2023-05-15T06:26:12.019Z,4.97
2023-05-15T06:29:17.670Z,4.40
2023-05-15T06:32:20.248Z,3.90
2023-05-15T06:35:25.988Z,4.20
2023-05-15T06:38:29.181Z,4.30
2023-05-15T06:41:32.988Z,3.28
2023-05-15T06:44:36.246Z,4.30
2023-05-15T06:47:39.577Z,3.72
2023-05-15T06:50:42.207Z,3.20
2023-05-15T06:53:44.818Z,3.85
2023-05-15T06:56:48.103Z,3.40
2023-05-15T07:00:04.513Z,3.27
2023-05-15T07:12:26.020Z,3.15
2023-05-15T07:15:31.805Z,2.90
2023-05-15T07:18:34.672Z,3.47
2023-05-15T07:21:40.234Z,3.22
2023-05-15T07:24:43.711Z,3.50
2023-05-15T07:28:23.332Z,3.00
2023-05-15T07:31:31.353Z,3.20
2023-05-15T07:34:34.041Z,3.73
2023-05-15T07:37:36.668Z,2.47
2023-05-15T07:40:39.866Z,2.88
2023-05-15T07:57:36.476Z,2.58
2023-05-15T08:00:41.558Z,3.40
2023-05-15T08:03:44.422Z,2.90
2023-05-15T08:06:50.093Z,2.40
2023-05-15T08:10:09.707Z,2.17
2023-05-15T08:13:17.772Z,2.30
2023-05-15T08:16:20.787Z,2.30
2023-05-15T08:19:24.171Z,2.33
2023-05-15T08:22:40.789Z,2.22
2023-05-15T08:25:43.518Z,2.30
2023-05-15T08:28:49.204Z,1.92
2023-05-15T08:31:52.154Z,2.08
2023-05-15T08:34:54.921Z,2.00
2023-05-15T08:38:00.738Z,2.40
2023-05-15T08:41:08.606Z,2.03
2023-05-15T08:44:13.695Z,1.92
2023-05-15T08:47:20.783Z,2.20
2023-05-15T08:50:24.072Z,2.30
2023-05-15T08:53:30.510Z,2.17
2023-05-15T08:56:33.390Z,2.80
2023-05-15T08:59:38.220Z,2.00
2023-05-15T09:02:44.448Z,1.92
2023-05-15T09:05:48.333Z,1.92
2023-05-15T09:08:52.933Z,2.40
2023-05-15T09:11:57.216Z,2.57
2023-05-15T09:15:22.580Z,2.65
2023-05-15T09:18:25.769Z,3.20
2023-05-15T09:21:31.792Z,2.75
2023-05-15T09:24:38.151Z,2.80
2023-05-15T09:27:44.204Z,2.43
2023-05-15T09:30:47.485Z,1.85
2023-05-15T09:34:02.538Z,2.20
2023-05-15T09:37:07.892Z,1.77
2023-05-15T09:40:11.872Z,1.90
2023-05-15T09:43:14.459Z,1.40
2023-05-15T09:46:17.851Z,1.13
2023-05-15T09:49:23.454Z,1.17
2023-05-15T09:52:30.132Z,1.00
2023-05-15T09:55:36.428Z,1.10
2023-05-15T09:59:34.926Z,1.10
2023-05-15T10:07:27.393Z,1.20
2023-05-15T10:10:58.012Z,1.17
2023-05-15T10:14:02.177Z,1.20
2023-05-15T10:22:02.985Z,1.58
2023-05-15T10:30:49.202Z,1.20
2023-05-15T10:34:01.997Z,1.60
2023-05-15T10:37:14.072Z,1.03
2023-05-15T10:40:30.554Z,1.13
2023-05-15T10:43:38.043Z,1.38
2023-05-15T10:46:41.578Z,1.60
2023-05-15T10:49:44.828Z,1.40
2023-05-15T10:52:53.269Z,1.20
2023-05-15T10:55:56.201Z,1.10
2023-05-15T10:59:05.266Z,1.40
2023-05-15T11:02:25.848Z,1.50
2023-05-15T11:05:52.085Z,1.70
2023-05-15T11:09:15.186Z,1.07
2023-05-15T11:12:18.215Z,1.30
2023-05-15T11:15:21.205Z,1.30
2023-05-15T11:18:23.995Z,1.73
2023-05-15T11:21:46.915Z,1.20
2023-05-15T11:25:06.213Z,1.07
2023-05-15T11:28:36.732Z,1.75
2023-05-15T11:31:42.386Z,2.45
2023-05-15T11:34:45.213Z,1.20
2023-05-15T11:37:54.240Z,1.23
2023-05-15T11:41:03.261Z,1.30
2023-05-15T11:44:09.370Z,1.15
2023-05-15T11:47:12.609Z,1.30
2023-05-15T11:50:37.768Z,1.50
2023-05-15T11:54:27.465Z,1.50
2023-05-15T11:57:30.527Z,1.23
2023-05-15T12:00:36.163Z,1.40
2023-05-15T12:03:42.193Z,1.40
2023-05-15T12:06:47.839Z,1.30
2023-05-15T12:10:26.097Z,1.60
2023-05-15T12:13:33.206Z,1.10
2023-05-15T12:16:43.566Z,1.10
2023-05-15T12:19:53.398Z,1.35
2023-05-15T12:23:27.068Z,1.25
2023-05-15T12:36:19.543Z,1.10
2023-05-15T12:39:54.190Z,1.10
2023-05-15T12:59:28.103Z,1.13
2023-05-15T13:03:19.189Z,0.90
2023-05-15T13:06:23.920Z,1.15
2023-05-15T13:09:29.197Z,0.83
2023-05-15T13:12:45.610Z,1.23
2023-05-15T13:15:49.100Z,1.27
2023-05-15T13:18:52.736Z,1.10
2023-05-15T13:21:57.666Z,1.60
2023-05-15T13:25:01.093Z,1.20
2023-05-15T13:28:06.187Z,1.30
2023-05-15T13:31:08.910Z,1.50
2023-05-15T13:34:11.691Z,1.20
2023-05-15T13:37:18.823Z,1.20
2023-05-15T13:40:22.047Z,1.00
2023-05-15T13:44:15.317Z,1.08
2023-05-15T13:47:18.654Z,1.23
2023-05-15T13:50:21.668Z,1.65
2023-05-15T13:53:24.622Z,1.95
2023-05-15T13:56:27.657Z,1.33
2023-05-15T13:59:30.594Z,1.42
2023-05-15T14:02:34.250Z,1.38
2023-05-15T14:05:37.859Z,1.35
2023-05-15T14:08:40.714Z,1.88
2023-05-15T14:11:43.542Z,1.10
2023-05-15T14:14:47.232Z,1.30
2023-05-15T14:17:50.772Z,1.23
2023-05-15T14:20:57.959Z,1.38
2023-05-15T14:24:00.846Z,1.40
2023-05-15T14:27:04.345Z,1.30
2023-05-15T14:30:07.823Z,1.20
2023-05-15T14:33:10.790Z,1.10
2023-05-15T14:36:13.798Z,1.13
2023-05-15T14:39:17.032Z,1.50
2023-05-15T14:42:21.354Z,1.30
2023-05-15T14:45:24.230Z,1.48
2023-05-15T14:48:27.277Z,1.10
2023-05-15T14:51:30.202Z,0.90
2023-05-15T14:54:33.148Z,1.10
2023-05-15T14:57:36.178Z,1.40
2023-05-15T15:00:39.016Z,1.30
2023-05-15T15:03:44.132Z,1.10
2023-05-15T15:06:50.132Z,1.05
2023-05-15T15:09:56.021Z,1.10
2023-05-15T15:12:59.337Z,1.30
2023-05-15T15:16:02.423Z,1.10
2023-05-15T15:19:05.363Z,1.20
2023-05-15T15:22:08.299Z,1.10
2023-05-15T15:25:11.832Z,1.00
2023-05-15T15:28:14.836Z,0.90
2023-05-15T15:31:17.859Z,0.95
2023-05-15T15:34:20.702Z,1.20
2023-05-15T15:37:23.771Z,1.05
2023-05-15T15:40:29.621Z,0.90
2023-05-15T15:43:32.678Z,0.80
2023-05-15T15:46:35.718Z,0.80
2023-05-15T15:49:38.768Z,1.08
2023-05-15T15:52:41.612Z,1.00
2023-05-15T15:55:46.366Z,1.05
2023-05-15T15:58:50.015Z,1.00
2023-05-15T16:01:52.807Z,1.00
2023-05-15T16:04:55.858Z,1.02
2023-05-15T16:07:58.690Z,1.25
2023-05-15T16:11:01.625Z,1.08
2023-05-15T16:14:07.414Z,1.10
2023-05-15T16:17:10.311Z,1.10
2023-05-15T16:20:18.475Z,1.20
2023-05-15T16:23:21.897Z,1.33
2023-05-15T16:26:24.851Z,1.10
2023-05-15T16:29:28.985Z,1.33
2023-05-15T16:32:32.012Z,1.40
2023-05-15T16:35:36.958Z,2.20
2023-05-15T16:38:39.929Z,1.58
2023-05-15T16:41:42.900Z,1.40
2023-05-15T16:44:46.165Z,1.23
2023-05-15T16:47:49.483Z,1.25
2023-05-15T16:50:53.037Z,3.00
2023-05-15T16:53:56.827Z,3.72
2023-05-15T16:56:59.664Z,1.35
2023-05-15T17:00:02.458Z,1.30
2023-05-15T17:03:06.463Z,1.55
2023-05-15T17:06:13.570Z,1.67
2023-05-15T17:09:16.464Z,1.50
2023-05-15T17:12:19.298Z,1.30
2023-05-15T17:15:25.514Z,1.30
2023-05-15T17:18:28.799Z,1.80
2023-05-15T17:21:32.096Z,2.40
2023-05-15T17:24:49.389Z,1.40
2023-05-15T17:27:56.559Z,1.40
2023-05-15T17:30:59.318Z,2.00
2023-05-15T17:34:02.296Z,1.50
2023-05-15T17:37:05.154Z,1.42
2023-05-15T17:40:11.369Z,1.50
2023-05-15T17:43:14.346Z,1.73
2023-05-15T17:46:17.225Z,1.60
2023-05-15T17:49:20.090Z,1.52
2023-05-15T17:52:23.020Z,1.30
2023-05-15T17:55:26.172Z,1.10
2023-05-15T17:58:29.112Z,1.17
2023-05-15T18:01:32.630Z,1.07
2023-05-15T18:04:35.613Z,1.13
2023-05-15T18:07:38.447Z,1.90
2023-05-15T18:10:44.237Z,4.10
2023-05-15T18:13:47.010Z,4.65
2023-05-15T18:16:53.051Z,1.97
2023-05-15T18:19:56.309Z,0.82
2023-05-15T18:22:59.124Z,1.00
2023-05-15T18:26:02.058Z,0.70
2023-05-15T18:29:04.899Z,1.35
2023-05-15T18:32:07.982Z,3.40
2023-05-15T18:35:10.940Z,6.68
2023-05-15T18:38:14.071Z,4.75
2023-05-15T18:41:17.201Z,1.95
2023-05-15T18:44:20.078Z,1.30
2023-05-15T18:47:23.075Z,1.30
2023-05-15T18:50:26.164Z,1.17
2023-05-15T18:53:29.066Z,1.17
2023-05-15T18:56:31.853Z,1.17
2023-05-15T18:59:34.970Z,1.40
2023-05-15T19:02:40.368Z,1.30
2023-05-15T19:05:43.367Z,1.20
2023-05-15T19:08:50.348Z,1.35
2023-05-15T19:11:53.108Z,1.05
2023-05-15T19:14:56.049Z,1.65
2023-05-15T19:18:00.232Z,3.27
2023-05-15T19:21:04.870Z,3.47
2023-05-15T19:24:10.653Z,3.00
2023-05-15T19:27:13.907Z,2.30
2023-05-15T19:30:16.830Z,1.40
2023-05-15T19:33:20.196Z,1.30
2023-05-15T19:36:26.327Z,1.38
2023-05-15T19:39:32.875Z,1.30
2023-05-15T19:42:35.789Z,1.27
2023-05-15T19:45:41.755Z,1.90
2023-05-15T19:48:47.268Z,2.13
2023-05-15T19:51:50.201Z,2.90
2023-05-15T19:54:53.119Z,3.28
2023-05-15T19:57:56.989Z,2.83
2023-05-15T20:01:03.037Z,9.15
2023-05-15T20:04:05.913Z,5.40
2023-05-15T20:07:08.810Z,4.60
2023-05-15T20:10:12.352Z,4.18
2023-05-15T20:13:15.261Z,3.65
2023-05-15T20:16:25.098Z,3.42
2023-05-15T20:19:31.607Z,3.57
2023-05-15T20:22:34.895Z,3.63
2023-05-15T20:25:40.688Z,3.88
2023-05-15T20:28:46.355Z,3.97
2023-05-15T20:31:52.479Z,3.53
2023-05-15T20:34:58.554Z,5.23
2023-05-15T20:38:08.615Z,6.65
2023-05-15T20:41:11.659Z,7.55
2023-05-15T20:44:14.514Z,7.07
2023-05-15T20:47:17.886Z,6.25
2023-05-15T20:50:21.898Z,5.10
2023-05-15T20:53:24.911Z,5.65
2023-05-15T20:56:30.840Z,6.22
2023-05-15T20:59:34.109Z,4.30
2023-05-15T21:02:37.254Z,3.58
2023-05-15T21:05:40.905Z,2.50
2023-05-15T21:08:46.553Z,6.63
2023-05-15T21:11:50.367Z,3.22
2023-05-15T21:14:54.036Z,2.90
2023-05-15T21:17:57.053Z,3.15
2023-05-15T21:21:00.372Z,2.50
2023-05-15T21:24:04.096Z,3.28
2023-05-15T21:27:07.047Z,3.30
2023-05-15T21:30:10.330Z,3.50
2023-05-15T21:33:13.254Z,2.97
2023-05-15T21:36:18.521Z,2.97
2023-05-15T21:39:23.980Z,2.92
2023-05-15T21:42:26.828Z,2.97
2023-05-15T21:45:30.065Z,2.63
2023-05-15T21:48:32.931Z,3.20
2023-05-15T21:51:36.347Z,2.53
2023-05-15T21:54:39.510Z,2.80
2023-05-15T21:57:45.697Z,3.08
2023-05-15T22:00:48.637Z,3.33
2023-05-15T22:03:53.736Z,4.05
2023-05-15T22:06:56.693Z,5.40
2023-05-15T22:09:59.705Z,4.60
2023-05-15T22:13:03.556Z,3.40
2023-05-15T22:16:06.641Z,4.00
2023-05-15T22:19:18.506Z,4.03
2023-05-15T22:22:31.694Z,2.80
2023-05-15T22:25:34.630Z,3.35
2023-05-15T22:28:37.421Z,3.30
2023-05-15T22:31:40.309Z,4.00
2023-05-15T22:34:43.143Z,4.40
2023-05-15T22:37:49.625Z,5.13
2023-05-15T22:40:55.163Z,4.50
2023-05-15T22:43:58.010Z,5.05
2023-05-15T22:47:00.816Z,3.50
2023-05-15T22:50:03.952Z,3.00
2023-05-15T22:53:06.943Z,2.60
2023-05-15T22:56:09.819Z,2.75
2023-05-15T22:59:12.695Z,3.00
2023-05-15T23:02:18.802Z,3.50
2023-05-15T23:05:22.075Z,3.00
2023-05-15T23:08:25.232Z,2.73
2023-05-15T23:11:28.476Z,2.97
2023-05-15T23:14:31.345Z,3.05
2023-05-15T23:17:34.244Z,2.90
2023-05-15T23:20:38.046Z,2.35
2023-05-15T23:23:43.064Z,2.23
2023-05-15T23:26:47.126Z,2.15
2023-05-15T23:29:49.963Z,2.60
2023-05-15T23:32:55.447Z,2.78
2023-05-15T23:35:58.415Z,2.72
2023-05-15T23:39:01.260Z,3.43
2023-05-15T23:42:04.183Z,2.72
2023-05-15T23:45:10.170Z,3.13
2023-05-15T23:48:13.251Z,2.50
2023-05-15T23:51:17.137Z,3.28
2023-05-15T23:54:21.003Z,2.80
2023-05-15T23:57:23.854Z,3.13
